EGUL - Lakenheath Royal AFB
Distance from station: E 5mi, 14km
Updated: 10/19/2017 12:56pm
Mostly Cloudy
Mostly Cloudy
 Wind from SSE
Wind: SSE 8 mph , 13 km/h
Temperature: 61°F , 16°C
Dew Point: 61°F , 16°C
Humidity: 100%
Barometer: 29.52 inHg , 999.7 hPa
Clouds: Mostly Cloudy
Visibility: 6 miles , 10 km
Cloud details: Partly Cloudy 4200 ft
Mostly Cloudy 5000 ft
Mostly Cloudy 6000 ft
2017/10/19 19:56 EGUL 191956Z AUTO 16007KT 9999 SCT042 BKN050 BKN060 16/16 A2952 RMK AO2 SLP000 T01590159